Time;durP1;ratioP1;P1;durP2;ratioP2;P2;SDS_P1;SDS_P2;PMS_P1;PMS_P2;Temp;Humidity;BMP_temperature;BMP_pressure;BME280_temperature;BME280_humidity;BME280_pressure;Samples;Min_cycle;Max_cycle;Signal;HPM_P1;HPM_P2
2023/08/07 00:03:03;;;;;;;2.28;1.73;;;;;;;;;;8326271;28;20076;-88
2023/08/07 00:07:06;;;;;;;2.13;1.60;;;;;;;;;;8318039;28;20045;-87
2023/08/07 00:11:10;;;;;;;2.75;1.73;;;;;;;;;;8311872;28;20463;-87
2023/08/07 00:15:15;;;;;;;3.13;1.70;;;;;;;;;;8312013;28;20092;-90
2023/08/07 00:19:18;;;;;;;2.13;1.60;;;;;;;;;;8334186;28;20041;-87
2023/08/07 00:23:21;;;;;;;2.80;1.95;;;;;;;;;;8321060;28;20594;-88
2023/08/07 00:27:23;;;;;;;2.00;1.60;;;;;;;;;;8300487;28;20068;-87
2023/08/07 00:31:30;;;;;;;2.40;1.80;;;;;;;;;;8326746;28;20124;-89
2023/08/07 00:35:33;;;;;;;2.85;2.03;;;;;;;;;;8334208;28;20128;-88
2023/08/07 00:39:36;;;;;;;2.67;1.90;;;;;;;;;;8334038;28;20140;-88
2023/08/07 00:43:39;;;;;;;2.85;2.10;;;;;;;;;;8333962;28;20131;-89
2023/08/07 00:47:43;;;;;;;4.18;2.30;;;;;;;;;;8320854;28;20076;-89
2023/08/07 00:51:46;;;;;;;2.42;2.08;;;;;;;;;;8302296;28;20406;-88
2023/08/07 00:55:49;;;;;;;4.43;2.10;;;;;;;;;;8320627;28;20051;-89
2023/08/07 00:59:53;;;;;;;3.15;2.00;;;;;;;;;;8331047;28;20416;-89
2023/08/07 01:03:57;;;;;;;4.57;2.20;;;;;;;;;;8325953;28;20410;-87
2023/08/07 01:08:01;;;;;;;5.10;3.05;;;;;;;;;;8305813;28;20740;-86
2023/08/07 01:12:14;;;;;;;5.53;2.55;;;;;;;;;;8316902;28;20050;-89
2023/08/07 01:16:23;;;;;;;5.65;2.53;;;;;;;;;;8330497;28;20585;-87
2023/08/07 01:20:27;;;;;;;3.25;2.50;;;;;;;;;;8308295;28;20547;-87
2023/08/07 01:24:31;;;;;;;4.78;2.35;;;;;;;;;;8331617;28;20045;-87
2023/08/07 01:28:38;;;;;;;4.45;2.45;;;;;;;;;;8313283;28;20065;-88
2023/08/07 01:32:49;;;;;;;5.43;2.30;;;;;;;;;;8309166;28;20651;-89
2023/08/07 01:36:52;;;;;;;5.97;2.55;;;;;;;;;;8325175;28;20053;-87
2023/08/07 01:40:58;;;;;;;2.97;2.30;;;;;;;;;;8303490;28;20148;-91
2023/08/07 01:45:01;;;;;;;6.05;2.58;;;;;;;;;;8308997;28;20062;-90
2023/08/07 01:49:04;;;;;;;4.47;2.47;;;;;;;;;;8321813;28;20069;-87
2023/08/07 01:53:07;;;;;;;4.45;2.25;;;;;;;;;;8313926;28;20049;-88
2023/08/07 01:57:11;;;;;;;2.63;2.17;;;;;;;;;;8313682;28;20049;-86
2023/08/07 02:01:14;;;;;;;3.97;2.30;;;;;;;;;;8300105;28;20038;-94
2023/08/07 02:05:17;;;;;;;3.42;2.10;;;;;;;;;;8313491;28;20116;-92
2023/08/07 02:09:20;;;;;;;2.58;2.15;;;;;;;;;;8322614;28;20056;-94
2023/08/07 02:13:26;;;;;;;3.42;2.10;;;;;;;;;;8315722;28;20059;-87
2023/08/07 02:17:29;;;;;;;4.32;2.30;;;;;;;;;;8301071;28;20124;-90
2023/08/07 02:21:33;;;;;;;3.97;2.45;;;;;;;;;;8310043;28;20053;-91
2023/08/07 02:25:36;;;;;;;4.43;2.53;;;;;;;;;;8309450;28;20133;-86
2023/08/07 02:29:40;;;;;;;4.72;2.80;;;;;;;;;;8326344;28;20117;-87
2023/08/07 02:37:55;;;;;;;5.93;2.70;;;;;;;;;;8405224;23;20501;-88
2023/08/07 02:41:58;;;;;;;4.07;2.67;;;;;;;;;;8298577;28;20097;-86
2023/08/07 02:46:03;;;;;;;5.30;2.90;;;;;;;;;;8297922;28;20493;-86
2023/08/07 02:50:06;;;;;;;5.22;3.40;;;;;;;;;;8297043;28;20107;-85
2023/08/07 02:54:09;;;;;;;5.00;3.58;;;;;;;;;;8295865;28;20080;-86
2023/08/07 02:58:13;;;;;;;5.65;3.80;;;;;;;;;;8281495;28;20054;-87
2023/08/07 03:02:17;;;;;;;5.40;3.50;;;;;;;;;;8272331;28;20070;-87
2023/08/07 03:06:21;;;;;;;7.13;4.30;;;;;;;;;;8285493;28;20148;-91
2023/08/07 03:10:24;;;;;;;6.10;4.55;;;;;;;;;;8284212;28;20133;-89
2023/08/07 03:14:27;;;;;;;8.52;5.80;;;;;;;;;;8296671;28;20546;-87
2023/08/07 03:18:34;;;;;;;7.88;4.88;;;;;;;;;;8299224;28;20456;-87
2023/08/07 03:22:37;;;;;;;5.90;4.00;;;;;;;;;;8300967;28;20054;-85
2023/08/07 03:26:41;;;;;;;5.68;3.97;;;;;;;;;;8295670;28;20195;-89
2023/08/07 03:30:44;;;;;;;4.97;3.80;;;;;;;;;;8295781;28;20049;-91
2023/08/07 03:34:48;;;;;;;5.38;3.70;;;;;;;;;;8288194;28;20101;-86
2023/08/07 03:38:51;;;;;;;4.63;3.38;;;;;;;;;;8294972;28;20398;-87
2023/08/07 03:42:54;;;;;;;4.93;3.58;;;;;;;;;;8302611;28;20482;-86
2023/08/07 03:47:00;;;;;;;4.50;3.15;;;;;;;;;;8302746;28;20042;-87
2023/08/07 03:51:09;;;;;;;6.45;3.38;;;;;;;;;;8302085;28;20054;-88
2023/08/07 03:55:12;;;;;;;6.57;3.38;;;;;;;;;;8286524;28;20509;-86
2023/08/07 03:59:15;;;;;;;5.28;3.28;;;;;;;;;;8297693;28;20076;-91
2023/08/07 04:03:18;;;;;;;8.23;3.58;;;;;;;;;;8294990;28;20061;-91
2023/08/07 04:07:24;;;;;;;4.65;3.40;;;;;;;;;;8300698;28;20053;-86
2023/08/07 04:11:27;;;;;;;10.27;4.00;;;;;;;;;;8298588;28;20053;-86
2023/08/07 04:15:31;;;;;;;6.95;3.63;;;;;;;;;;8290714;28;20129;-86
2023/08/07 04:19:34;;;;;;;8.18;3.65;;;;;;;;;;8305915;28;20102;-85
2023/08/07 04:23:37;;;;;;;6.18;3.60;;;;;;;;;;8300925;28;20077;-88
2023/08/07 04:27:40;;;;;;;4.80;3.30;;;;;;;;;;8301688;28;20042;-88
2023/08/07 04:31:43;;;;;;;7.80;3.63;;;;;;;;;;8277060;28;20042;-89
2023/08/07 04:35:47;;;;;;;4.50;2.92;;;;;;;;;;8290351;28;20062;-89
2023/08/07 04:39:54;;;;;;;5.95;3.30;;;;;;;;;;8296748;28;20049;-86
2023/08/07 04:43:57;;;;;;;5.65;3.35;;;;;;;;;;8288074;28;20053;-86
2023/08/07 04:48:00;;;;;;;4.13;2.90;;;;;;;;;;8294008;28;20137;-86
2023/08/07 04:52:03;;;;;;;4.72;3.10;;;;;;;;;;8286969;28;20060;-86
2023/08/07 04:56:09;;;;;;;8.55;3.20;;;;;;;;;;8289329;28;20142;-88
2023/08/07 05:00:13;;;;;;;4.22;2.85;;;;;;;;;;8285264;28;20501;-86
2023/08/07 05:04:16;;;;;;;6.35;3.33;;;;;;;;;;8287713;28;20093;-87
2023/08/07 05:08:20;;;;;;;6.97;3.10;;;;;;;;;;8294979;28;20133;-86
2023/08/07 05:12:24;;;;;;;6.15;3.20;;;;;;;;;;8336200;28;20042;-88
2023/08/07 05:16:27;;;;;;;4.55;2.80;;;;;;;;;;8331585;28;20061;-87
2023/08/07 05:20:30;;;;;;;5.65;2.90;;;;;;;;;;8328671;28;20054;-87
2023/08/07 05:24:38;;;;;;;4.95;2.90;;;;;;;;;;8321286;28;20053;-88
2023/08/07 05:28:42;;;;;;;4.82;3.22;;;;;;;;;;8326783;28;20049;-87
2023/08/07 05:32:45;;;;;;;5.72;3.55;;;;;;;;;;8311242;28;20052;-88
2023/08/07 05:36:49;;;;;;;5.80;3.97;;;;;;;;;;8310987;28;20402;-88
2023/08/07 05:40:52;;;;;;;7.57;3.58;;;;;;;;;;8282003;28;20133;-87
2023/08/07 05:44:57;;;;;;;5.18;3.42;;;;;;;;;;8272682;28;20042;-89
2023/08/07 05:49:00;;;;;;;6.78;3.97;;;;;;;;;;8282109;28;20429;-87
2023/08/07 05:53:04;;;;;;;5.05;3.53;;;;;;;;;;8304071;28;20077;-87
2023/08/07 05:57:08;;;;;;;4.85;3.85;;;;;;;;;;8289379;28;20121;-86
2023/08/07 06:01:12;;;;;;;4.30;3.53;;;;;;;;;;8292333;28;20134;-91
2023/08/07 06:05:16;;;;;;;6.75;4.30;;;;;;;;;;8292907;28;20057;-87
2023/08/07 06:09:21;;;;;;;6.03;4.00;;;;;;;;;;8279857;28;20054;-86
2023/08/07 06:13:25;;;;;;;6.20;3.42;;;;;;;;;;8272552;28;20054;-86
2023/08/07 06:17:29;;;;;;;6.35;3.47;;;;;;;;;;8299106;28;20042;-86
2023/08/07 06:21:32;;;;;;;6.88;3.58;;;;;;;;;;8298339;28;20415;-87
2023/08/07 06:25:36;;;;;;;4.78;3.08;;;;;;;;;;8297708;28;20050;-88
2023/08/07 06:29:39;;;;;;;5.53;3.03;;;;;;;;;;8285854;28;20046;-86
2023/08/07 06:33:44;;;;;;;4.45;3.10;;;;;;;;;;8296857;28;20068;-92
2023/08/07 06:37:47;;;;;;;4.57;2.97;;;;;;;;;;8296664;28;20057;-87
2023/08/07 06:41:50;;;;;;;3.42;2.30;;;;;;;;;;8275748;28;20050;-87
2023/08/07 06:45:56;;;;;;;5.72;2.60;;;;;;;;;;8278446;28;20708;-87
2023/08/07 06:50:00;;;;;;;2.92;2.33;;;;;;;;;;8278875;28;20057;-89
2023/08/07 06:54:04;;;;;;;2.60;2.00;;;;;;;;;;8283330;28;20394;-86
2023/08/07 06:58:07;;;;;;;3.30;2.08;;;;;;;;;;8296745;28;20046;-86
2023/08/07 07:02:10;;;;;;;3.15;1.77;;;;;;;;;;8296882;28;20046;-88
2023/08/07 07:06:17;;;;;;;2.60;1.80;;;;;;;;;;8286746;28;20054;-87
2023/08/07 07:10:20;;;;;;;4.05;1.58;;;;;;;;;;8292694;28;20482;-86
2023/08/07 07:14:25;;;;;;;2.95;1.80;;;;;;;;;;8296472;28;20046;-88
2023/08/07 07:18:28;;;;;;;3.20;1.83;;;;;;;;;;8293570;28;20081;-88
2023/08/07 07:22:32;;;;;;;2.85;1.52;;;;;;;;;;8286790;28;20041;-90
2023/08/07 07:26:34;;;;;;;2.38;1.75;;;;;;;;;;8296108;28;20046;-86
2023/08/07 07:30:40;;;;;;;2.45;1.90;;;;;;;;;;8284594;28;20164;-86
2023/08/07 07:34:43;;;;;;;1.80;1.60;;;;;;;;;;8296248;28;20061;-86
2023/08/07 07:38:48;;;;;;;5.63;1.90;;;;;;;;;;8286917;28;20054;-86
2023/08/07 07:42:51;;;;;;;5.13;1.98;;;;;;;;;;8295629;28;20255;-88
2023/08/07 07:46:55;;;;;;;3.25;1.80;;;;;;;;;;8293918;28;20054;-86
2023/08/07 07:51:00;;;;;;;2.17;1.60;;;;;;;;;;8297003;28;20125;-87
2023/08/07 07:55:06;;;;;;;2.25;1.40;;;;;;;;;;8295833;28;20046;-85
2023/08/07 07:59:09;;;;;;;2.05;1.85;;;;;;;;;;8270120;28;20056;-88
2023/08/07 08:03:12;;;;;;;5.75;1.67;;;;;;;;;;8262402;28;20112;-86
2023/08/07 08:07:16;;;;;;;2.95;1.90;;;;;;;;;;8266039;28;20042;-89
2023/08/07 08:11:21;;;;;;;2.70;1.90;;;;;;;;;;8270889;28;20046;-87
2023/08/07 08:15:27;;;;;;;2.58;1.95;;;;;;;;;;8271635;28;20644;-87
2023/08/07 08:19:30;;;;;;;3.55;1.70;;;;;;;;;;8275670;28;20144;-87
2023/08/07 08:23:33;;;;;;;3.35;1.73;;;;;;;;;;8281583;28;20053;-88
2023/08/07 08:27:38;;;;;;;2.72;1.83;;;;;;;;;;8264518;28;20053;-86
2023/08/07 08:31:41;;;;;;;2.97;1.90;;;;;;;;;;8270305;28;20061;-87
2023/08/07 08:35:45;;;;;;;3.25;1.83;;;;;;;;;;8267699;28;20085;-87
2023/08/07 08:39:48;;;;;;;3.45;1.63;;;;;;;;;;8277609;28;20050;-91
2023/08/07 08:43:56;;;;;;;3.63;1.77;;;;;;;;;;8273960;28;20056;-87
2023/08/07 08:48:03;;;;;;;1.95;1.60;;;;;;;;;;8269870;28;20056;-88
2023/08/07 08:52:07;;;;;;;3.58;1.90;;;;;;;;;;8290488;28;20076;-89
2023/08/07 08:56:11;;;;;;;3.45;1.73;;;;;;;;;;8287262;28;20096;-89
2023/08/07 09:06:02;;;;;;;2.60;1.65;;;;;;;;;;8201644;28;20062;-88
2023/08/07 09:10:06;;;;;;;4.10;1.80;;;;;;;;;;8207003;28;20495;-87
2023/08/07 09:14:12;;;;;;;3.63;2.10;;;;;;;;;;8184388;28;20106;-86
2023/08/07 09:18:18;;;;;;;2.97;1.77;;;;;;;;;;8185705;28;20069;-87
2023/08/07 09:22:26;;;;;;;4.40;1.70;;;;;;;;;;8220308;28;20411;-89
2023/08/07 09:26:29;;;;;;;1.88;1.33;;;;;;;;;;8203016;28;20641;-88
2023/08/07 09:30:37;;;;;;;2.70;1.73;;;;;;;;;;8214126;28;20526;-88
2023/08/07 09:34:43;;;;;;;6.47;2.03;;;;;;;;;;8205184;28;20627;-87
2023/08/07 09:38:55;;;;;;;2.60;1.80;;;;;;;;;;8199091;28;20057;-87
2023/08/07 09:43:02;;;;;;;2.13;1.73;;;;;;;;;;8228243;28;20047;-88
2023/08/07 09:47:14;;;;;;;3.00;1.95;;;;;;;;;;8204609;28;20579;-87
2023/08/07 09:51:17;;;;;;;4.35;1.88;;;;;;;;;;8207038;28;20078;-88
2023/08/07 09:55:23;;;;;;;3.28;1.88;;;;;;;;;;8191960;28;22026;-90
2023/08/07 09:59:25;;;;;;;4.47;1.80;;;;;;;;;;8208264;28;20066;-87
2023/08/07 10:03:29;;;;;;;2.25;1.70;;;;;;;;;;8187925;28;20538;-88
2023/08/07 10:07:32;;;;;;;2.53;1.80;;;;;;;;;;8208211;28;20055;-86
2023/08/07 10:11:40;;;;;;;2.70;1.70;;;;;;;;;;8200283;28;20061;-88
2023/08/07 10:15:44;;;;;;;2.40;1.92;;;;;;;;;;8203241;28;20043;-87
2023/08/07 10:19:47;;;;;;;4.07;1.90;;;;;;;;;;8199282;28;20083;-87
2023/08/07 10:23:52;;;;;;;2.15;1.70;;;;;;;;;;8182954;28;20074;-89
2023/08/07 10:28:00;;;;;;;3.75;1.88;;;;;;;;;;8212726;28;20047;-87
2023/08/07 10:32:05;;;;;;;2.90;1.60;;;;;;;;;;8210373;28;20136;-86
2023/08/07 10:36:12;;;;;;;2.25;1.70;;;;;;;;;;8209271;28;20636;-88
2023/08/07 10:40:15;;;;;;;4.25;1.77;;;;;;;;;;8202298;28;20046;-87
2023/08/07 10:44:23;;;;;;;3.53;1.75;;;;;;;;;;8204270;28;20055;-89
2023/08/07 10:48:28;;;;;;;2.45;1.88;;;;;;;;;;8209853;28;20043;-86
2023/08/07 10:52:32;;;;;;;2.65;1.80;;;;;;;;;;8199206;28;20065;-87
2023/08/07 10:56:41;;;;;;;5.47;1.80;;;;;;;;;;8193466;28;20561;-89
2023/08/07 11:00:47;;;;;;;2.00;1.42;;;;;;;;;;8229765;28;20658;-89
2023/08/07 11:04:50;;;;;;;2.10;1.70;;;;;;;;;;8186216;28;20051;-89
2023/08/07 11:08:53;;;;;;;3.40;1.58;;;;;;;;;;8202002;28;20075;-89
2023/08/07 11:13:00;;;;;;;2.58;1.70;;;;;;;;;;8198047;28;20047;-88
2023/08/07 11:17:05;;;;;;;2.53;1.70;;;;;;;;;;8201758;28;20556;-88
2023/08/07 11:21:10;;;;;;;3.72;1.80;;;;;;;;;;8190524;28;20458;-88
2023/08/07 11:25:15;;;;;;;2.00;1.77;;;;;;;;;;8210140;23;20598;-89
2023/08/07 11:29:19;;;;;;;2.92;2.10;;;;;;;;;;8206761;28;20410;-88
2023/08/07 11:33:25;;;;;;;4.07;1.80;;;;;;;;;;8198461;28;20074;-87
2023/08/07 11:37:28;;;;;;;3.15;2.00;;;;;;;;;;8202208;28;20154;-87
2023/08/07 11:41:33;;;;;;;3.72;2.00;;;;;;;;;;8201949;28;20055;-86
2023/08/07 11:45:36;;;;;;;3.08;2.33;;;;;;;;;;8220046;28;20558;-86
2023/08/07 11:49:43;;;;;;;2.92;1.80;;;;;;;;;;8203766;28;20139;-86
2023/08/07 11:53:47;;;;;;;2.85;2.00;;;;;;;;;;8214257;28;20410;-89
2023/08/07 11:57:50;;;;;;;4.75;1.73;;;;;;;;;;8215920;28;20062;-87
2023/08/07 12:01:54;;;;;;;5.13;2.05;;;;;;;;;;8216784;28;20441;-91
2023/08/07 12:06:04;;;;;;;2.65;2.03;;;;;;;;;;8208380;28;20051;-87
2023/08/07 12:10:09;;;;;;;2.53;1.75;;;;;;;;;;8211726;28;20047;-88
2023/08/07 12:14:16;;;;;;;2.05;1.63;;;;;;;;;;8200364;28;20880;-88
2023/08/07 12:18:20;;;;;;;4.07;2.10;;;;;;;;;;8215344;28;20046;-88
2023/08/07 12:22:29;;;;;;;4.95;2.10;;;;;;;;;;8209237;28;20091;-87
2023/08/07 12:26:32;;;;;;;5.78;1.92;;;;;;;;;;8206394;28;20063;-87
2023/08/07 12:30:36;;;;;;;2.63;1.90;;;;;;;;;;8200839;28;20525;-86
2023/08/07 12:34:38;;;;;;;3.50;2.20;;;;;;;;;;8217497;28;20054;-87
2023/08/07 12:38:43;;;;;;;6.10;2.63;;;;;;;;;;8204257;28;20102;-87
2023/08/07 12:42:48;;;;;;;6.93;2.10;;;;;;;;;;8205497;28;20621;-88
2023/08/07 12:46:51;;;;;;;2.85;1.80;;;;;;;;;;8213237;28;20071;-88
2023/08/07 12:50:54;;;;;;;4.22;2.10;;;;;;;;;;8201581;28;20443;-88
2023/08/07 12:55:02;;;;;;;2.80;2.00;;;;;;;;;;8202841;28;20059;-88
2023/08/07 12:59:05;;;;;;;3.95;2.20;;;;;;;;;;8201354;28;20054;-88
2023/08/07 13:03:08;;;;;;;2.42;1.85;;;;;;;;;;8208483;28;20183;-87
2023/08/07 13:07:12;;;;;;;3.03;2.10;;;;;;;;;;8203459;28;20082;-86
2023/08/07 13:11:18;;;;;;;5.05;2.20;;;;;;;;;;8208354;28;20078;-87
2023/08/07 13:15:21;;;;;;;3.40;2.03;;;;;;;;;;8223764;28;20523;-88
2023/08/07 13:19:24;;;;;;;3.10;1.88;;;;;;;;;;8203263;28;20043;-87
2023/08/07 13:23:27;;;;;;;3.58;2.03;;;;;;;;;;8214481;28;20063;-87
2023/08/07 13:27:34;;;;;;;3.67;2.10;;;;;;;;;;8212499;28;20051;-88
2023/08/07 13:31:37;;;;;;;3.25;1.88;;;;;;;;;;8204119;28;20047;-87
2023/08/07 13:35:41;;;;;;;3.20;2.10;;;;;;;;;;8201939;28;20071;-87
2023/08/07 13:39:44;;;;;;;5.95;2.40;;;;;;;;;;8213365;28;20493;-86
2023/08/07 13:43:49;;;;;;;11.32;2.50;;;;;;;;;;8200822;28;20059;-86
2023/08/07 13:47:53;;;;;;;3.55;2.20;;;;;;;;;;8204832;28;20091;-87
2023/08/07 13:51:58;;;;;;;3.17;2.10;;;;;;;;;;8200268;28;20063;-86
2023/08/07 13:56:02;;;;;;;4.57;2.25;;;;;;;;;;8205394;28;20074;-89
2023/08/07 14:00:11;;;;;;;3.80;2.42;;;;;;;;;;8209541;28;20070;-87
2023/08/07 14:04:15;;;;;;;5.70;2.55;;;;;;;;;;8200846;28;20054;-87
2023/08/07 14:08:19;;;;;;;3.70;2.10;;;;;;;;;;8199399;28;20059;-87
2023/08/07 14:12:23;;;;;;;4.10;2.20;;;;;;;;;;8217069;28;20486;-87
2023/08/07 14:16:32;;;;;;;3.80;2.22;;;;;;;;;;8200360;28;20573;-86
2023/08/07 14:20:36;;;;;;;2.75;2.22;;;;;;;;;;8197071;28;20165;-87
2023/08/07 14:24:39;;;;;;;4.13;2.47;;;;;;;;;;8207759;28;20149;-86
2023/08/07 14:28:43;;;;;;;3.67;2.10;;;;;;;;;;8201394;28;20513;-86
2023/08/07 14:32:47;;;;;;;4.35;2.15;;;;;;;;;;8209872;28;20070;-86
2023/08/07 14:36:51;;;;;;;3.90;2.35;;;;;;;;;;8196816;28;20047;-87
2023/08/07 14:40:54;;;;;;;6.68;2.05;;;;;;;;;;8203852;28;20054;-86
2023/08/07 14:44:58;;;;;;;4.20;2.20;;;;;;;;;;8207878;28;20055;-88
2023/08/07 14:49:03;;;;;;;4.47;2.35;;;;;;;;;;8199730;28;20055;-87
2023/08/07 14:53:06;;;;;;;5.20;2.30;;;;;;;;;;8201742;28;20066;-86
2023/08/07 14:57:09;;;;;;;4.00;2.42;;;;;;;;;;8217761;28;20059;-86
2023/08/07 15:01:12;;;;;;;5.07;2.65;;;;;;;;;;8207633;28;20144;-87
2023/08/07 15:05:18;;;;;;;3.60;2.20;;;;;;;;;;8202633;28;20130;-86
2023/08/07 15:09:21;;;;;;;3.00;2.20;;;;;;;;;;8209675;28;20051;-87
2023/08/07 15:13:25;;;;;;;5.65;2.20;;;;;;;;;;8196885;28;20498;-87
2023/08/07 15:17:28;;;;;;;4.57;2.20;;;;;;;;;;8221697;28;20089;-87
2023/08/07 15:21:34;;;;;;;5.10;2.55;;;;;;;;;;8212088;28;20070;-87
2023/08/07 15:25:39;;;;;;;3.25;2.20;;;;;;;;;;8216327;28;20419;-86
2023/08/07 15:29:46;;;;;;;6.68;2.83;;;;;;;;;;8221252;28;20101;-86
2023/08/07 15:34:00;;;;;;;6.03;2.60;;;;;;;;;;8217574;28;20405;-87
2023/08/07 15:38:40;;;;;;;5.55;2.55;;;;;;;;;;8516957;23;20417;-87
2023/08/07 15:42:58;;;;;;;5.82;2.85;;;;;;;;;;8275583;28;20062;-87
2023/08/07 15:47:02;;;;;;;4.78;2.80;;;;;;;;;;8285988;28;20070;-88
2023/08/07 15:51:06;;;;;;;6.13;2.80;;;;;;;;;;8265493;28;20500;-88
2023/08/07 15:55:12;;;;;;;5.93;2.65;;;;;;;;;;8270274;28;20066;-87
2023/08/07 15:59:15;;;;;;;4.32;2.88;;;;;;;;;;8258556;28;20120;-87
2023/08/07 16:03:18;;;;;;;5.80;2.97;;;;;;;;;;8285546;28;20054;-86
2023/08/07 16:07:21;;;;;;;4.90;2.67;;;;;;;;;;8302828;28;20049;-86
2023/08/07 16:11:26;;;;;;;6.47;2.70;;;;;;;;;;8302398;28;20474;-87
2023/08/07 16:15:30;;;;;;;6.30;2.90;;;;;;;;;;8304581;28;20041;-87
2023/08/07 16:19:33;;;;;;;4.72;2.88;;;;;;;;;;8338069;28;20025;-86
2023/08/07 16:23:36;;;;;;;7.07;2.72;;;;;;;;;;8336952;28;20033;-86
2023/08/07 16:27:41;;;;;;;6.13;2.88;;;;;;;;;;8332945;28;20057;-86
2023/08/07 16:31:44;;;;;;;6.90;2.97;;;;;;;;;;8328687;28;20037;-86
2023/08/07 16:35:47;;;;;;;4.07;2.90;;;;;;;;;;8328272;28;20474;-86
2023/08/07 16:40:00;;;;;;;5.60;3.42;;;;;;;;;;8306235;28;20084;-88
2023/08/07 16:44:07;;;;;;;4.82;2.75;;;;;;;;;;8311919;28;20430;-87
2023/08/07 16:48:12;;;;;;;4.38;2.95;;;;;;;;;;8270371;28;20425;-88
2023/08/07 16:52:16;;;;;;;6.15;2.70;;;;;;;;;;8270160;28;20065;-87
2023/08/07 16:56:21;;;;;;;5.43;3.10;;;;;;;;;;8274846;28;20049;-88
2023/08/07 17:00:27;;;;;;;5.18;3.15;;;;;;;;;;8258158;28;20061;-87
2023/08/07 17:04:32;;;;;;;8.55;3.08;;;;;;;;;;8295262;28;20432;-86
2023/08/07 17:08:36;;;;;;;7.25;3.28;;;;;;;;;;8268545;28;20065;-88
2023/08/07 17:16:52;;;;;;;7.78;3.90;;;;;;;;;;8243646;23;20384;-87
2023/08/07 17:20:57;;;;;;;4.15;2.95;;;;;;;;;;8324378;23;20061;-87
2023/08/07 17:25:01;;;;;;;4.68;2.45;;;;;;;;;;8258282;28;20100;-90
2023/08/07 17:29:05;;;;;;;4.70;2.72;;;;;;;;;;8233305;28;20042;-88
2023/08/07 17:33:19;;;;;;;4.93;2.17;;;;;;;;;;8308388;23;20066;-89
2023/08/07 17:37:32;;;;;;;2.67;1.92;;;;;;;;;;8242790;28;20047;-88
2023/08/07 17:41:37;;;;;;;4.38;1.70;;;;;;;;;;8247788;28;20053;-87
2023/08/07 17:45:43;;;;;;;2.20;1.80;;;;;;;;;;8229965;28;20451;-89
2023/08/07 17:49:50;;;;;;;3.03;1.90;;;;;;;;;;8244558;28;20143;-88
2023/08/07 17:53:55;;;;;;;5.75;2.30;;;;;;;;;;8241954;28;20070;-88
2023/08/07 17:58:00;;;;;;;3.92;2.38;;;;;;;;;;8224840;28;20050;-88
2023/08/07 18:02:05;;;;;;;7.65;3.42;;;;;;;;;;8229746;28;20051;-89
2023/08/07 18:06:14;;;;;;;11.05;4.30;;;;;;;;;;8223867;28;20200;-88
2023/08/07 18:10:20;;;;;;;7.72;4.50;;;;;;;;;;8220550;28;20457;-87
2023/08/07 18:14:27;;;;;;;11.10;3.50;;;;;;;;;;8240392;28;20054;-89
2023/08/07 18:18:31;;;;;;;6.50;3.10;;;;;;;;;;8241883;28;20046;-88
2023/08/07 18:22:41;;;;;;;7.18;3.25;;;;;;;;;;8228280;28;20055;-88
2023/08/07 18:27:07;;;;;;;7.13;2.97;;;;;;;;;;8264009;23;20562;-89
2023/08/07 18:31:13;;;;;;;6.28;2.60;;;;;;;;;;8253907;28;20065;-88
2023/08/07 18:35:17;;;;;;;4.57;2.78;;;;;;;;;;8259672;28;20042;-89
2023/08/07 18:39:24;;;;;;;5.78;3.03;;;;;;;;;;8255590;28;20046;-89
2023/08/07 18:43:28;;;;;;;6.07;3.58;;;;;;;;;;8270765;28;20054;-88
2023/08/07 18:47:32;;;;;;;15.18;3.55;;;;;;;;;;8274421;28;20035;-89
2023/08/07 18:51:37;;;;;;;8.38;3.30;;;;;;;;;;8267493;28;20069;-87
2023/08/07 18:55:43;;;;;;;7.95;4.03;;;;;;;;;;8253901;28;20128;-89
2023/08/07 18:59:47;;;;;;;6.28;3.55;;;;;;;;;;8269809;28;20054;-90
2023/08/07 19:03:51;;;;;;;7.53;3.40;;;;;;;;;;8271345;28;20046;-87
2023/08/07 19:07:58;;;;;;;7.15;3.58;;;;;;;;;;8267420;28;20050;-90
2023/08/07 19:12:06;;;;;;;9.23;4.30;;;;;;;;;;8267748;28;20096;-88
2023/08/07 19:16:12;;;;;;;6.85;3.50;;;;;;;;;;8266362;28;20057;-88
2023/08/07 19:20:20;;;;;;;8.32;3.97;;;;;;;;;;8265779;28;20046;-90
2023/08/07 19:24:24;;;;;;;6.70;3.75;;;;;;;;;;8265980;28;20104;-89
2023/08/07 19:28:29;;;;;;;6.15;3.40;;;;;;;;;;8266001;28;20054;-90
2023/08/07 19:32:35;;;;;;;4.65;2.92;;;;;;;;;;8269055;28;20130;-90
2023/08/07 19:36:43;;;;;;;12.38;3.90;;;;;;;;;;8241852;28;20050;-87
2023/08/07 19:40:56;;;;;;;7.78;3.65;;;;;;;;;;8264454;28;20501;-88
2023/08/07 19:45:04;;;;;;;7.30;3.80;;;;;;;;;;8268703;28;20062;-89
2023/08/07 19:49:11;;;;;;;5.88;2.90;;;;;;;;;;8266567;28;20592;-87
2023/08/07 19:53:18;;;;;;;5.90;2.92;;;;;;;;;;8265886;28;20046;-87
2023/08/07 19:57:22;;;;;;;4.43;2.88;;;;;;;;;;8243671;28;20058;-88
2023/08/07 20:01:29;;;;;;;4.25;2.97;;;;;;;;;;8226470;28;20053;-89
2023/08/07 20:05:34;;;;;;;4.82;2.83;;;;;;;;;;8251095;28;20058;-88
2023/08/07 20:09:39;;;;;;;5.93;3.22;;;;;;;;;;8244837;28;20061;-88
2023/08/07 20:13:44;;;;;;;5.78;3.03;;;;;;;;;;8250862;28;20061;-86
2023/08/07 20:17:52;;;;;;;5.30;2.85;;;;;;;;;;8244176;28;20050;-86
2023/08/07 20:21:56;;;;;;;4.30;3.00;;;;;;;;;;8269083;28;20042;-87
2023/08/07 20:26:00;;;;;;;5.13;3.28;;;;;;;;;;8244204;28;20058;-87
2023/08/07 20:30:06;;;;;;;6.38;3.00;;;;;;;;;;8251223;28;20486;-88
2023/08/07 20:34:14;;;;;;;4.43;3.20;;;;;;;;;;8245425;28;20062;-89
2023/08/07 20:38:18;;;;;;;8.68;3.10;;;;;;;;;;8239244;28;20061;-86
2023/08/07 20:42:21;;;;;;;7.07;3.10;;;;;;;;;;8268249;28;20609;-88
2023/08/07 20:46:24;;;;;;;4.28;2.90;;;;;;;;;;8238663;28;20137;-88
2023/08/07 20:50:30;;;;;;;5.72;3.17;;;;;;;;;;8244983;28;20634;-88
2023/08/07 20:54:33;;;;;;;4.53;3.13;;;;;;;;;;8239007;28;20478;-88
2023/08/07 20:58:37;;;;;;;6.25;3.28;;;;;;;;;;8245497;28;20062;-87
2023/08/07 21:02:40;;;;;;;4.50;3.10;;;;;;;;;;8238908;28;20061;-89
2023/08/07 21:06:50;;;;;;;7.35;3.47;;;;;;;;;;8245626;28;20383;-90
2023/08/07 21:10:54;;;;;;;6.13;3.08;;;;;;;;;;8250995;28;20558;-88
2023/08/07 21:14:57;;;;;;;5.60;3.35;;;;;;;;;;8245685;28;20105;-86
2023/08/07 21:19:01;;;;;;;7.47;3.40;;;;;;;;;;8225627;28;20073;-87
2023/08/07 21:23:12;;;;;;;4.43;3.22;;;;;;;;;;8246134;28;20046;-86
2023/08/07 21:27:16;;;;;;;5.57;3.50;;;;;;;;;;8350791;23;20055;-87
2023/08/07 21:31:19;;;;;;;7.93;3.90;;;;;;;;;;8218260;28;20861;-89
2023/08/07 21:35:23;;;;;;;6.68;4.05;;;;;;;;;;8219719;28;20049;-87
2023/08/07 21:39:28;;;;;;;7.00;4.45;;;;;;;;;;8232126;28;20125;-88
2023/08/07 21:43:31;;;;;;;7.65;3.85;;;;;;;;;;8232253;28;20045;-87
2023/08/07 21:47:34;;;;;;;7.70;3.92;;;;;;;;;;8231080;28;20063;-88
2023/08/07 21:51:38;;;;;;;7.43;3.85;;;;;;;;;;8212601;28;20042;-90
2023/08/07 21:55:42;;;;;;;9.57;4.78;;;;;;;;;;8219438;28;20054;-87
2023/08/07 22:59:07;;;;;;;6.20;2.80;;;;;;;;;;8107815;29;20086;-87
2023/08/07 23:04:20;;;;;;;7.38;3.08;;;;;;;;;;8018306;29;20519;-88
2023/08/07 23:08:23;;;;;;;4.88;2.60;;;;;;;;;;8181551;29;20056;-88
2023/08/07 23:12:27;;;;;;;4.53;2.70;;;;;;;;;;8193889;29;20048;-88
2023/08/07 23:16:31;;;;;;;4.13;2.63;;;;;;;;;;8178279;29;20451;-88
2023/08/07 23:20:34;;;;;;;6.63;2.72;;;;;;;;;;8197440;29;20451;-89
2023/08/07 23:24:37;;;;;;;5.93;2.88;;;;;;;;;;8195246;29;20047;-90
2023/08/07 23:28:42;;;;;;;4.70;2.47;;;;;;;;;;8220140;28;20498;-87
